sensor_id;sensor_type;location;lat;lon;timestamp;P1;durP1;ratioP1;P2;durP2;ratioP2
78897;SDS011;68287;44.714;37.756;2023-02-28T07:48:11;13.27;;;6.90;;
78897;SDS011;68287;44.714;37.756;2023-02-28T07:49:45;11.75;;;6.68;;
78897;SDS011;68287;44.714;37.756;2023-02-28T07:50:54;14.25;;;6.78;;
78897;SDS011;68287;44.714;37.756;2023-02-28T07:52:49;16.85;;;7.55;;
78897;SDS011;68287;44.714;37.756;2023-02-28T07:53:50;12.55;;;7.15;;
78897;SDS011;68287;44.714;37.756;2023-02-28T07:54:51;12.35;;;7.13;;
78897;SDS011;68287;44.714;37.756;2023-02-28T07:55:54;11.45;;;6.78;;
78897;SDS011;68287;44.714;37.756;2023-02-28T07:56:56;11.43;;;7.00;;
78897;SDS011;68287;44.714;37.756;2023-02-28T07:57:57;14.52;;;7.13;;
78897;SDS011;68287;44.714;37.756;2023-02-28T07:58:59;17.27;;;6.85;;
78897;SDS011;68287;44.714;37.756;2023-02-28T08:00:01;11.93;;;6.50;;
78897;SDS011;68287;44.714;37.756;2023-02-28T08:01:12;13.65;;;6.80;;
78897;SDS011;68287;44.714;37.756;2023-02-28T08:02:14;10.07;;;6.57;;
78897;SDS011;68287;44.714;37.756;2023-02-28T08:03:17;14.60;;;7.18;;
78897;SDS011;68287;44.714;37.756;2023-02-28T08:04:37;12.30;;;6.63;;
78897;SDS011;68287;44.714;37.756;2023-02-28T08:05:39;15.93;;;7.65;;
78897;SDS011;68287;44.714;37.756;2023-02-28T08:06:41;26.65;;;11.15;;
78897;SDS011;68287;44.714;37.756;2023-02-28T08:07:42;15.02;;;7.95;;
78897;SDS011;68287;44.714;37.756;2023-02-28T08:08:43;17.63;;;8.32;;
78897;SDS011;68287;44.714;37.756;2023-02-28T08:09:45;15.88;;;8.20;;
78897;SDS011;68287;44.714;37.756;2023-02-28T08:10:47;16.90;;;8.25;;
78897;SDS011;68287;44.714;37.756;2023-02-28T08:11:49;17.27;;;8.77;;
78897;SDS011;68287;44.714;37.756;2023-02-28T08:12:50;24.75;;;10.70;;
78897;SDS011;68287;44.714;37.756;2023-02-28T08:13:51;21.65;;;10.75;;
78897;SDS011;68287;44.714;37.756;2023-02-28T08:14:53;23.65;;;9.18;;
78897;SDS011;68287;44.714;37.756;2023-02-28T08:15:54;27.00;;;9.85;;
78897;SDS011;68287;44.714;37.756;2023-02-28T08:16:56;29.48;;;12.82;;
78897;SDS011;68287;44.714;37.756;2023-02-28T08:17:57;28.05;;;12.30;;
78897;SDS011;68287;44.714;37.756;2023-02-28T08:18:59;27.95;;;12.30;;
78897;SDS011;68287;44.714;37.756;2023-02-28T08:20:02;25.25;;;11.18;;
78897;SDS011;68287;44.714;37.756;2023-02-28T08:21:06;28.55;;;11.25;;
78897;SDS011;68287;44.714;37.756;2023-02-28T08:22:07;30.95;;;13.38;;
78897;SDS011;68287;44.714;37.756;2023-02-28T08:23:08;24.17;;;11.38;;
78897;SDS011;68287;44.714;37.756;2023-02-28T08:24:09;28.95;;;12.65;;
78897;SDS011;68287;44.714;37.756;2023-02-28T08:25:11;26.15;;;12.32;;
78897;SDS011;68287;44.714;37.756;2023-02-28T08:26:12;29.30;;;13.40;;
78897;SDS011;68287;44.714;37.756;2023-02-28T08:27:13;29.75;;;12.13;;
78897;SDS011;68287;44.714;37.756;2023-02-28T08:28:15;25.80;;;11.73;;
78897;SDS011;68287;44.714;37.756;2023-02-28T08:29:16;28.85;;;12.43;;
78897;SDS011;68287;44.714;37.756;2023-02-28T08:30:18;30.77;;;13.45;;
78897;SDS011;68287;44.714;37.756;2023-02-28T08:31:19;27.42;;;12.63;;
78897;SDS011;68287;44.714;37.756;2023-02-28T08:32:20;30.17;;;12.98;;
78897;SDS011;68287;44.714;37.756;2023-02-28T08:33:24;27.17;;;12.80;;
78897;SDS011;68287;44.714;37.756;2023-02-28T08:34:26;28.48;;;12.77;;
78897;SDS011;68287;44.714;37.756;2023-02-28T08:35:28;27.35;;;13.13;;
78897;SDS011;68287;44.714;37.756;2023-02-28T08:36:29;26.52;;;12.43;;
78897;SDS011;68287;44.714;37.756;2023-02-28T08:37:30;28.20;;;12.85;;
78897;SDS011;68287;44.714;37.756;2023-02-28T08:38:32;31.17;;;14.07;;
78897;SDS011;68287;44.714;37.756;2023-02-28T08:39:36;26.85;;;13.65;;
78897;SDS011;68287;44.714;37.756;2023-02-28T08:40:37;25.70;;;12.00;;
78897;SDS011;68287;44.714;37.756;2023-02-28T08:41:39;25.50;;;12.70;;
78897;SDS011;68287;44.714;37.756;2023-02-28T08:42:40;24.85;;;11.73;;
78897;SDS011;68287;44.714;37.756;2023-02-28T08:43:41;24.42;;;11.25;;
78897;SDS011;68287;44.714;37.756;2023-02-28T08:44:42;21.95;;;11.45;;
78897;SDS011;68287;44.714;37.756;2023-02-28T08:45:44;30.88;;;10.50;;
78897;SDS011;68287;44.714;37.756;2023-02-28T08:46:45;25.35;;;12.15;;
78897;SDS011;68287;44.714;37.756;2023-02-28T08:47:47;29.38;;;12.77;;
78897;SDS011;68287;44.714;37.756;2023-02-28T08:48:51;27.90;;;12.68;;
78897;SDS011;68287;44.714;37.756;2023-02-28T08:49:54;34.88;;;13.07;;
78897;SDS011;68287;44.714;37.756;2023-02-28T08:50:56;27.70;;;11.82;;
78897;SDS011;68287;44.714;37.756;2023-02-28T08:51:57;32.35;;;12.73;;
78897;SDS011;68287;44.714;37.756;2023-02-28T08:52:59;26.50;;;11.93;;
78897;SDS011;68287;44.714;37.756;2023-02-28T08:54:00;27.13;;;11.90;;
78897;SDS011;68287;44.714;37.756;2023-02-28T08:55:02;24.98;;;11.93;;
78897;SDS011;68287;44.714;37.756;2023-02-28T08:56:04;29.75;;;11.65;;
78897;SDS011;68287;44.714;37.756;2023-02-28T08:57:06;25.35;;;11.93;;
78897;SDS011;68287;44.714;37.756;2023-02-28T08:58:07;25.95;;;10.93;;
78897;SDS011;68287;44.714;37.756;2023-02-28T08:59:08;24.30;;;11.32;;
78897;SDS011;68287;44.714;37.756;2023-02-28T09:00:11;26.13;;;11.07;;
78897;SDS011;68287;44.714;37.756;2023-02-28T09:01:16;27.15;;;10.90;;
78897;SDS011;68287;44.714;37.756;2023-02-28T09:02:17;24.48;;;11.32;;
78897;SDS011;68287;44.714;37.756;2023-02-28T09:03:20;21.15;;;10.55;;
78897;SDS011;68287;44.714;37.756;2023-02-28T09:04:21;22.27;;;10.35;;
78897;SDS011;68287;44.714;37.756;2023-02-28T09:05:24;21.27;;;10.45;;
78897;SDS011;68287;44.714;37.756;2023-02-28T09:06:26;22.05;;;10.18;;
78897;SDS011;68287;44.714;37.756;2023-02-28T09:07:27;23.35;;;10.55;;
78897;SDS011;68287;44.714;37.756;2023-02-28T09:08:29;23.58;;;10.73;;
78897;SDS011;68287;44.714;37.756;2023-02-28T09:09:31;20.95;;;10.70;;
78897;SDS011;68287;44.714;37.756;2023-02-28T09:10:32;23.08;;;11.00;;
78897;SDS011;68287;44.714;37.756;2023-02-28T09:11:35;20.45;;;10.68;;
78897;SDS011;68287;44.714;37.756;2023-02-28T09:12:38;24.33;;;10.68;;
78897;SDS011;68287;44.714;37.756;2023-02-28T09:13:39;20.30;;;9.60;;
78897;SDS011;68287;44.714;37.756;2023-02-28T09:14:41;18.85;;;9.98;;
78897;SDS011;68287;44.714;37.756;2023-02-28T09:15:42;22.08;;;10.05;;
78897;SDS011;68287;44.714;37.756;2023-02-28T09:16:45;22.38;;;10.52;;
78897;SDS011;68287;44.714;37.756;2023-02-28T09:17:46;20.05;;;10.32;;
78897;SDS011;68287;44.714;37.756;2023-02-28T09:19:21;20.23;;;9.40;;
78897;SDS011;68287;44.714;37.756;2023-02-28T09:20:23;19.95;;;9.45;;
78897;SDS011;68287;44.714;37.756;2023-02-28T09:21:25;19.23;;;8.65;;
78897;SDS011;68287;44.714;37.756;2023-02-28T09:22:26;20.88;;;9.13;;
78897;SDS011;68287;44.714;37.756;2023-02-28T09:23:27;21.65;;;9.02;;
78897;SDS011;68287;44.714;37.756;2023-02-28T09:24:28;18.75;;;9.38;;
78897;SDS011;68287;44.714;37.756;2023-02-28T09:25:32;18.23;;;9.25;;
78897;SDS011;68287;44.714;37.756;2023-02-28T09:26:34;20.85;;;9.00;;
78897;SDS011;68287;44.714;37.756;2023-02-28T09:27:36;19.55;;;9.43;;
78897;SDS011;68287;44.714;37.756;2023-02-28T09:28:38;19.05;;;9.23;;
78897;SDS011;68287;44.714;37.756;2023-02-28T09:29:39;18.27;;;8.73;;
78897;SDS011;68287;44.714;37.756;2023-02-28T09:30:44;17.30;;;8.27;;
78897;SDS011;68287;44.714;37.756;2023-02-28T09:31:45;20.52;;;9.13;;
78897;SDS011;68287;44.714;37.756;2023-02-28T09:32:47;18.38;;;9.05;;
78897;SDS011;68287;44.714;37.756;2023-02-28T09:33:53;19.27;;;8.43;;
78897;SDS011;68287;44.714;37.756;2023-02-28T09:34:55;14.88;;;8.73;;
78897;SDS011;68287;44.714;37.756;2023-02-28T09:36:00;17.23;;;8.50;;
78897;SDS011;68287;44.714;37.756;2023-02-28T09:37:02;20.02;;;9.50;;
78897;SDS011;68287;44.714;37.756;2023-02-28T09:38:03;18.85;;;8.35;;
78897;SDS011;68287;44.714;37.756;2023-02-28T09:39:05;21.23;;;8.88;;
78897;SDS011;68287;44.714;37.756;2023-02-28T09:40:06;17.67;;;8.88;;
78897;SDS011;68287;44.714;37.756;2023-02-28T09:41:14;23.08;;;9.18;;
78897;SDS011;68287;44.714;37.756;2023-02-28T09:42:21;16.77;;;8.27;;
78897;SDS011;68287;44.714;37.756;2023-02-28T09:43:25;17.30;;;8.23;;
78897;SDS011;68287;44.714;37.756;2023-02-28T09:44:32;21.48;;;9.30;;
78897;SDS011;68287;44.714;37.756;2023-02-28T09:45:36;17.67;;;8.30;;
78897;SDS011;68287;44.714;37.756;2023-02-28T09:47:42;14.52;;;8.07;;
78897;SDS011;68287;44.714;37.756;2023-02-28T09:48:45;18.85;;;7.72;;
78897;SDS011;68287;44.714;37.756;2023-02-28T09:49:47;18.77;;;8.98;;
78897;SDS011;68287;44.714;37.756;2023-02-28T09:50:50;12.82;;;8.27;;
78897;SDS011;68287;44.714;37.756;2023-02-28T09:51:58;15.07;;;8.45;;
78897;SDS011;68287;44.714;37.756;2023-02-28T09:54:15;15.85;;;8.07;;
78897;SDS011;68287;44.714;37.756;2023-02-28T09:55:24;14.80;;;7.47;;
78897;SDS011;68287;44.714;37.756;2023-02-28T09:56:41;16.25;;;8.10;;
78897;SDS011;68287;44.714;37.756;2023-02-28T09:57:43;16.40;;;8.57;;
78897;SDS011;68287;44.714;37.756;2023-02-28T09:58:49;18.25;;;8.95;;
78897;SDS011;68287;44.714;37.756;2023-02-28T10:00:15;20.10;;;9.32;;
78897;SDS011;68287;44.714;37.756;2023-02-28T10:07:17;17.77;;;8.60;;
78897;SDS011;68287;44.714;37.756;2023-02-28T10:08:56;18.17;;;8.00;;
78897;SDS011;68287;44.714;37.756;2023-02-28T10:10:03;15.25;;;8.02;;
78897;SDS011;68287;44.714;37.756;2023-02-28T10:11:09;13.88;;;7.68;;
78897;SDS011;68287;44.714;37.756;2023-02-28T10:12:16;13.10;;;7.80;;
78897;SDS011;68287;44.714;37.756;2023-02-28T10:13:32;14.18;;;7.22;;
78897;SDS011;68287;44.714;37.756;2023-02-28T10:14:44;12.10;;;7.45;;
78897;SDS011;68287;44.714;37.756;2023-02-28T10:15:50;13.27;;;7.88;;
78897;SDS011;68287;44.714;37.756;2023-02-28T10:16:56;14.45;;;7.55;;
78897;SDS011;68287;44.714;37.756;2023-02-28T10:18:04;13.50;;;7.13;;
78897;SDS011;68287;44.714;37.756;2023-02-28T10:19:12;13.95;;;7.38;;
78897;SDS011;68287;44.714;37.756;2023-02-28T10:20:19;13.45;;;8.00;;
78897;SDS011;68287;44.714;37.756;2023-02-28T10:21:26;14.60;;;7.82;;
78897;SDS011;68287;44.714;37.756;2023-02-28T10:22:57;12.70;;;7.40;;
78897;SDS011;68287;44.714;37.756;2023-02-28T10:24:14;13.43;;;7.50;;
78897;SDS011;68287;44.714;37.756;2023-02-28T10:25:57;12.23;;;7.35;;
78897;SDS011;68287;44.714;37.756;2023-02-28T10:27:09;13.18;;;7.07;;
78897;SDS011;68287;44.714;37.756;2023-02-28T10:28:16;11.68;;;7.00;;
78897;SDS011;68287;44.714;37.756;2023-02-28T10:29:21;12.68;;;7.40;;
78897;SDS011;68287;44.714;37.756;2023-02-28T10:30:23;12.48;;;6.90;;
78897;SDS011;68287;44.714;37.756;2023-02-28T10:31:25;13.88;;;6.50;;
78897;SDS011;68287;44.714;37.756;2023-02-28T10:33:35;13.93;;;6.78;;
78897;SDS011;68287;44.714;37.756;2023-02-28T10:34:37;11.48;;;7.35;;
78897;SDS011;68287;44.714;37.756;2023-02-28T10:35:38;12.10;;;7.03;;
78897;SDS011;68287;44.714;37.756;2023-02-28T10:36:40;12.00;;;7.05;;
78897;SDS011;68287;44.714;37.756;2023-02-28T10:39:49;11.52;;;7.28;;
78897;SDS011;68287;44.714;37.756;2023-02-28T10:40:51;13.00;;;7.28;;
78897;SDS011;68287;44.714;37.756;2023-02-28T10:42:03;11.98;;;7.10;;
78897;SDS011;68287;44.714;37.756;2023-02-28T10:44:20;14.48;;;7.15;;
78897;SDS011;68287;44.714;37.756;2023-02-28T10:45:23;12.55;;;7.05;;
78897;SDS011;68287;44.714;37.756;2023-02-28T10:46:26;15.85;;;6.70;;
78897;SDS011;68287;44.714;37.756;2023-02-28T10:47:33;12.65;;;7.00;;
78897;SDS011;68287;44.714;37.756;2023-02-28T10:48:38;13.15;;;7.55;;
78897;SDS011;68287;44.714;37.756;2023-02-28T10:49:49;11.10;;;6.88;;
78897;SDS011;68287;44.714;37.756;2023-02-28T10:50:53;14.63;;;6.82;;
78897;SDS011;68287;44.714;37.756;2023-02-28T17:05:16;11.68;;;4.63;;
78897;SDS011;68287;44.714;37.756;2023-02-28T17:06:23;10.90;;;5.25;;
78897;SDS011;68287;44.714;37.756;2023-02-28T17:07:31;8.65;;;4.70;;
78897;SDS011;68287;44.714;37.756;2023-02-28T17:08:33;9.82;;;5.25;;
78897;SDS011;68287;44.714;37.756;2023-02-28T17:09:34;9.93;;;4.85;;
78897;SDS011;68287;44.714;37.756;2023-02-28T17:10:36;8.25;;;4.80;;
78897;SDS011;68287;44.714;37.756;2023-02-28T17:11:38;8.63;;;4.90;;
78897;SDS011;68287;44.714;37.756;2023-02-28T17:12:40;10.18;;;5.60;;
78897;SDS011;68287;44.714;37.756;2023-02-28T17:13:41;9.10;;;5.20;;
78897;SDS011;68287;44.714;37.756;2023-02-28T17:14:42;11.93;;;4.95;;
78897;SDS011;68287;44.714;37.756;2023-02-28T17:15:44;11.38;;;5.22;;
78897;SDS011;68287;44.714;37.756;2023-02-28T17:16:47;9.80;;;4.95;;
78897;SDS011;68287;44.714;37.756;2023-02-28T17:17:48;9.30;;;4.57;;
78897;SDS011;68287;44.714;37.756;2023-02-28T17:18:50;10.40;;;4.88;;
78897;SDS011;68287;44.714;37.756;2023-02-28T17:19:53;10.07;;;4.90;;
78897;SDS011;68287;44.714;37.756;2023-02-28T17:20:54;12.35;;;5.40;;
78897;SDS011;68287;44.714;37.756;2023-02-28T17:21:56;11.15;;;5.53;;
78897;SDS011;68287;44.714;37.756;2023-02-28T17:22:57;10.13;;;5.68;;
78897;SDS011;68287;44.714;37.756;2023-02-28T17:23:59;9.80;;;5.05;;
78897;SDS011;68287;44.714;37.756;2023-02-28T17:25:01;9.43;;;5.53;;
78897;SDS011;68287;44.714;37.756;2023-02-28T17:26:02;10.52;;;4.85;;
78897;SDS011;68287;44.714;37.756;2023-02-28T17:27:08;9.90;;;5.80;;
78897;SDS011;68287;44.714;37.756;2023-02-28T17:28:12;9.30;;;4.80;;
78897;SDS011;68287;44.714;37.756;2023-02-28T17:29:15;9.20;;;4.47;;
78897;SDS011;68287;44.714;37.756;2023-02-28T17:30:20;9.30;;;5.03;;
78897;SDS011;68287;44.714;37.756;2023-02-28T17:31:24;9.20;;;4.70;;
78897;SDS011;68287;44.714;37.756;2023-02-28T17:32:30;9.07;;;4.80;;
78897;SDS011;68287;44.714;37.756;2023-02-28T17:33:31;9.13;;;4.80;;
78897;SDS011;68287;44.714;37.756;2023-02-28T17:34:32;9.05;;;4.85;;
78897;SDS011;68287;44.714;37.756;2023-02-28T17:35:35;9.43;;;5.05;;
78897;SDS011;68287;44.714;37.756;2023-02-28T17:36:37;10.70;;;4.72;;
78897;SDS011;68287;44.714;37.756;2023-02-28T17:37:41;10.77;;;4.85;;
78897;SDS011;68287;44.714;37.756;2023-02-28T17:38:42;12.45;;;5.13;;
78897;SDS011;68287;44.714;37.756;2023-02-28T17:39:44;8.93;;;4.60;;
78897;SDS011;68287;44.714;37.756;2023-02-28T17:40:51;8.90;;;4.20;;
78897;SDS011;68287;44.714;37.756;2023-02-28T17:41:57;11.20;;;4.22;;
78897;SDS011;68287;44.714;37.756;2023-02-28T17:42:59;9.75;;;4.68;;
78897;SDS011;68287;44.714;37.756;2023-02-28T17:44:00;9.52;;;4.78;;
78897;SDS011;68287;44.714;37.756;2023-02-28T17:45:02;8.82;;;4.78;;
78897;SDS011;68287;44.714;37.756;2023-02-28T17:46:03;10.57;;;4.40;;
78897;SDS011;68287;44.714;37.756;2023-02-28T17:47:08;9.07;;;4.53;;
78897;SDS011;68287;44.714;37.756;2023-02-28T17:48:12;7.90;;;4.60;;
78897;SDS011;68287;44.714;37.756;2023-02-28T17:49:14;9.68;;;4.43;;
78897;SDS011;68287;44.714;37.756;2023-02-28T17:50:16;9.77;;;4.15;;
78897;SDS011;68287;44.714;37.756;2023-02-28T17:51:21;8.77;;;4.35;;
78897;SDS011;68287;44.714;37.756;2023-02-28T17:52:23;8.00;;;4.38;;
78897;SDS011;68287;44.714;37.756;2023-02-28T17:53:25;10.25;;;4.65;;
78897;SDS011;68287;44.714;37.756;2023-02-28T17:54:27;9.52;;;4.75;;
78897;SDS011;68287;44.714;37.756;2023-02-28T17:55:29;9.60;;;4.85;;
78897;SDS011;68287;44.714;37.756;2023-02-28T17:56:30;11.15;;;4.15;;
78897;SDS011;68287;44.714;37.756;2023-02-28T17:57:32;8.57;;;4.43;;
78897;SDS011;68287;44.714;37.756;2023-02-28T17:58:34;12.20;;;5.13;;
78897;SDS011;68287;44.714;37.756;2023-02-28T17:59:35;10.13;;;4.60;;
78897;SDS011;68287;44.714;37.756;2023-02-28T18:00:36;9.00;;;4.50;;
78897;SDS011;68287;44.714;37.756;2023-02-28T18:01:39;8.90;;;4.80;;
78897;SDS011;68287;44.714;37.756;2023-02-28T18:02:40;10.52;;;4.32;;
78897;SDS011;68287;44.714;37.756;2023-02-28T18:03:42;8.38;;;4.07;;
78897;SDS011;68287;44.714;37.756;2023-02-28T18:04:43;7.68;;;3.72;;
78897;SDS011;68287;44.714;37.756;2023-02-28T18:05:48;8.05;;;4.53;;
78897;SDS011;68287;44.714;37.756;2023-02-28T18:06:52;9.13;;;4.68;;
78897;SDS011;68287;44.714;37.756;2023-02-28T18:07:54;10.95;;;5.25;;
78897;SDS011;68287;44.714;37.756;2023-02-28T18:08:58;13.50;;;5.53;;
78897;SDS011;68287;44.714;37.756;2023-02-28T18:10:00;13.07;;;5.75;;
78897;SDS011;68287;44.714;37.756;2023-02-28T18:11:06;14.13;;;5.78;;
78897;SDS011;68287;44.714;37.756;2023-02-28T18:12:18;16.15;;;5.97;;
78897;SDS011;68287;44.714;37.756;2023-02-28T18:13:19;17.83;;;5.72;;
78897;SDS011;68287;44.714;37.756;2023-02-28T18:14:22;15.40;;;6.03;;
78897;SDS011;68287;44.714;37.756;2023-02-28T18:16:27;17.70;;;5.80;;
78897;SDS011;68287;44.714;37.756;2023-02-28T18:17:30;17.88;;;5.82;;
78897;SDS011;68287;44.714;37.756;2023-02-28T18:18:35;17.05;;;5.65;;
78897;SDS011;68287;44.714;37.756;2023-02-28T18:19:38;11.70;;;5.32;;
78897;SDS011;68287;44.714;37.756;2023-02-28T18:20:39;15.65;;;5.30;;
78897;SDS011;68287;44.714;37.756;2023-02-28T18:21:42;13.88;;;5.53;;
78897;SDS011;68287;44.714;37.756;2023-02-28T18:22:44;13.85;;;5.45;;
78897;SDS011;68287;44.714;37.756;2023-02-28T18:23:47;12.60;;;5.25;;
78897;SDS011;68287;44.714;37.756;2023-02-28T18:24:49;13.80;;;5.47;;
78897;SDS011;68287;44.714;37.756;2023-02-28T18:25:51;13.32;;;5.22;;
78897;SDS011;68287;44.714;37.756;2023-02-28T18:26:53;14.77;;;5.40;;
78897;SDS011;68287;44.714;37.756;2023-02-28T18:27:55;15.00;;;4.97;;
78897;SDS011;68287;44.714;37.756;2023-02-28T18:28:59;12.23;;;5.25;;
78897;SDS011;68287;44.714;37.756;2023-02-28T18:30:02;11.32;;;4.88;;
78897;SDS011;68287;44.714;37.756;2023-02-28T18:31:05;12.75;;;5.22;;
78897;SDS011;68287;44.714;37.756;2023-02-28T18:32:09;13.43;;;4.88;;
78897;SDS011;68287;44.714;37.756;2023-02-28T18:33:16;16.52;;;4.88;;
78897;SDS011;68287;44.714;37.756;2023-02-28T18:34:18;13.32;;;4.95;;
78897;SDS011;68287;44.714;37.756;2023-02-28T18:35:21;11.82;;;4.57;;
78897;SDS011;68287;44.714;37.756;2023-02-28T18:36:35;11.88;;;5.10;;
78897;SDS011;68287;44.714;37.756;2023-02-28T18:37:41;13.10;;;5.25;;
78897;SDS011;68287;44.714;37.756;2023-02-28T18:38:43;11.73;;;4.55;;
78897;SDS011;68287;44.714;37.756;2023-02-28T18:39:45;13.10;;;3.92;;
78897;SDS011;68287;44.714;37.756;2023-02-28T18:40:51;13.50;;;4.70;;
78897;SDS011;68287;44.714;37.756;2023-02-28T18:41:57;11.02;;;4.60;;
78897;SDS011;68287;44.714;37.756;2023-02-28T18:42:59;11.55;;;4.80;;
78897;SDS011;68287;44.714;37.756;2023-02-28T18:44:01;9.98;;;5.15;;
78897;SDS011;68287;44.714;37.756;2023-02-28T18:45:02;9.50;;;4.22;;
78897;SDS011;68287;44.714;37.756;2023-02-28T18:46:05;9.98;;;3.92;;
78897;SDS011;68287;44.714;37.756;2023-02-28T18:47:09;11.23;;;4.88;;
78897;SDS011;68287;44.714;37.756;2023-02-28T18:48:12;9.60;;;4.28;;
78897;SDS011;68287;44.714;37.756;2023-02-28T18:50:18;11.70;;;4.30;;
78897;SDS011;68287;44.714;37.756;2023-02-28T18:51:21;11.90;;;5.18;;
78897;SDS011;68287;44.714;37.756;2023-02-28T18:52:24;9.93;;;4.25;;
78897;SDS011;68287;44.714;37.756;2023-02-28T18:53:26;8.98;;;3.78;;
78897;SDS011;68287;44.714;37.756;2023-02-28T18:54:28;11.38;;;4.60;;
78897;SDS011;68287;44.714;37.756;2023-02-28T18:55:30;8.18;;;4.00;;
78897;SDS011;68287;44.714;37.756;2023-02-28T18:56:32;9.20;;;3.90;;
78897;SDS011;68287;44.714;37.756;2023-02-28T18:57:34;9.48;;;3.90;;
78897;SDS011;68287;44.714;37.756;2023-02-28T18:58:38;9.52;;;4.40;;
78897;SDS011;68287;44.714;37.756;2023-02-28T19:00:03;9.18;;;4.07;;
78897;SDS011;68287;44.714;37.756;2023-02-28T19:01:26;9.00;;;3.72;;
78897;SDS011;68287;44.714;37.756;2023-02-28T19:02:38;10.48;;;4.00;;
78897;SDS011;68287;44.714;37.756;2023-02-28T19:03:40;11.30;;;4.22;;
78897;SDS011;68287;44.714;37.756;2023-02-28T19:04:41;11.35;;;4.55;;
78897;SDS011;68287;44.714;37.756;2023-02-28T19:05:42;9.32;;;4.32;;
78897;SDS011;68287;44.714;37.756;2023-02-28T19:06:44;7.68;;;3.80;;
78897;SDS011;68287;44.714;37.756;2023-02-28T19:07:45;8.35;;;3.85;;
78897;SDS011;68287;44.714;37.756;2023-02-28T19:08:51;10.32;;;3.75;;
78897;SDS011;68287;44.714;37.756;2023-02-28T19:09:56;10.70;;;3.80;;
78897;SDS011;68287;44.714;37.756;2023-02-28T19:10:58;11.00;;;3.92;;
78897;SDS011;68287;44.714;37.756;2023-02-28T19:11:59;9.25;;;3.30;;
78897;SDS011;68287;44.714;37.756;2023-02-28T19:13:01;9.95;;;4.35;;
78897;SDS011;68287;44.714;37.756;2023-02-28T19:14:04;7.97;;;3.60;;
78897;SDS011;68287;44.714;37.756;2023-02-28T19:15:06;8.65;;;4.47;;
78897;SDS011;68287;44.714;37.756;2023-02-28T19:16:08;10.50;;;3.70;;
78897;SDS011;68287;44.714;37.756;2023-02-28T19:17:11;8.13;;;3.42;;
78897;SDS011;68287;44.714;37.756;2023-02-28T19:18:14;8.75;;;3.92;;
78897;SDS011;68287;44.714;37.756;2023-02-28T19:19:15;7.47;;;3.95;;
78897;SDS011;68287;44.714;37.756;2023-02-28T19:20:17;9.00;;;4.10;;
78897;SDS011;68287;44.714;37.756;2023-02-28T19:21:20;8.75;;;3.63;;
78897;SDS011;68287;44.714;37.756;2023-02-28T19:22:23;8.60;;;3.63;;
78897;SDS011;68287;44.714;37.756;2023-02-28T19:23:25;8.15;;;3.92;;
78897;SDS011;68287;44.714;37.756;2023-02-28T19:24:28;9.57;;;3.30;;
78897;SDS011;68287;44.714;37.756;2023-02-28T19:25:29;8.57;;;3.47;;
78897;SDS011;68287;44.714;37.756;2023-02-28T19:26:31;7.63;;;3.58;;
78897;SDS011;68287;44.714;37.756;2023-02-28T19:27:33;7.43;;;3.60;;
78897;SDS011;68287;44.714;37.756;2023-02-28T19:28:35;7.32;;;3.83;;
78897;SDS011;68287;44.714;37.756;2023-02-28T19:29:37;7.78;;;3.40;;
78897;SDS011;68287;44.714;37.756;2023-02-28T19:30:38;9.15;;;3.85;;
78897;SDS011;68287;44.714;37.756;2023-02-28T19:31:40;10.43;;;4.07;;
78897;SDS011;68287;44.714;37.756;2023-02-28T19:32:42;10.23;;;3.28;;
78897;SDS011;68287;44.714;37.756;2023-02-28T19:33:43;7.68;;;3.10;;
78897;SDS011;68287;44.714;37.756;2023-02-28T19:34:45;7.82;;;3.72;;
78897;SDS011;68287;44.714;37.756;2023-02-28T19:35:48;9.65;;;3.92;;
78897;SDS011;68287;44.714;37.756;2023-02-28T19:36:49;8.05;;;3.40;;
78897;SDS011;68287;44.714;37.756;2023-02-28T19:37:51;8.50;;;3.58;;
78897;SDS011;68287;44.714;37.756;2023-02-28T19:38:52;7.32;;;3.80;;
78897;SDS011;68287;44.714;37.756;2023-02-28T19:39:54;8.57;;;3.70;;
78897;SDS011;68287;44.714;37.756;2023-02-28T19:41:03;8.15;;;3.65;;
78897;SDS011;68287;44.714;37.756;2023-02-28T19:42:10;8.65;;;3.88;;
78897;SDS011;68287;44.714;37.756;2023-02-28T19:43:14;7.15;;;3.17;;
78897;SDS011;68287;44.714;37.756;2023-02-28T19:44:16;8.25;;;3.47;;
78897;SDS011;68287;44.714;37.756;2023-02-28T19:45:17;9.23;;;3.40;;
78897;SDS011;68287;44.714;37.756;2023-02-28T19:46:19;8.43;;;3.28;;
78897;SDS011;68287;44.714;37.756;2023-02-28T19:47:20;7.15;;;3.42;;
78897;SDS011;68287;44.714;37.756;2023-02-28T19:48:22;9.20;;;3.60;;
78897;SDS011;68287;44.714;37.756;2023-02-28T19:49:26;6.63;;;2.97;;
78897;SDS011;68287;44.714;37.756;2023-02-28T19:50:27;6.50;;;3.13;;
78897;SDS011;68287;44.714;37.756;2023-02-28T19:51:29;6.50;;;3.08;;
78897;SDS011;68287;44.714;37.756;2023-02-28T19:52:30;7.85;;;3.47;;
78897;SDS011;68287;44.714;37.756;2023-02-28T19:53:33;7.65;;;3.65;;
78897;SDS011;68287;44.714;37.756;2023-02-28T19:54:35;9.73;;;3.65;;
78897;SDS011;68287;44.714;37.756;2023-02-28T19:55:37;8.98;;;3.97;;
78897;SDS011;68287;44.714;37.756;2023-02-28T19:56:38;6.45;;;3.03;;
78897;SDS011;68287;44.714;37.756;2023-02-28T19:57:41;13.32;;;4.30;;
78897;SDS011;68287;44.714;37.756;2023-02-28T19:58:43;7.43;;;3.53;;
78897;SDS011;68287;44.714;37.756;2023-02-28T19:59:45;7.85;;;3.90;;
78897;SDS011;68287;44.714;37.756;2023-02-28T20:00:46;7.88;;;3.45;;
78897;SDS011;68287;44.714;37.756;2023-02-28T20:01:48;10.32;;;3.92;;
78897;SDS011;68287;44.714;37.756;2023-02-28T20:02:50;9.75;;;3.97;;
78897;SDS011;68287;44.714;37.756;2023-02-28T20:03:52;9.30;;;3.65;;
78897;SDS011;68287;44.714;37.756;2023-02-28T20:04:54;7.68;;;3.78;;
78897;SDS011;68287;44.714;37.756;2023-02-28T20:05:58;7.63;;;3.65;;
78897;SDS011;68287;44.714;37.756;2023-02-28T20:07:01;8.32;;;3.60;;
78897;SDS011;68287;44.714;37.756;2023-02-28T20:08:02;7.82;;;4.05;;
78897;SDS011;68287;44.714;37.756;2023-02-28T20:09:04;6.97;;;3.63;;
78897;SDS011;68287;44.714;37.756;2023-02-28T20:10:06;7.47;;;3.90;;
78897;SDS011;68287;44.714;37.756;2023-02-28T20:11:10;7.95;;;3.72;;
78897;SDS011;68287;44.714;37.756;2023-02-28T20:12:14;7.63;;;3.72;;
78897;SDS011;68287;44.714;37.756;2023-02-28T20:13:17;7.63;;;3.63;;
78897;SDS011;68287;44.714;37.756;2023-02-28T20:14:19;8.18;;;3.63;;
78897;SDS011;68287;44.714;37.756;2023-02-28T20:15:21;8.55;;;3.22;;
78897;SDS011;68287;44.714;37.756;2023-02-28T20:16:23;6.60;;;3.05;;
78897;SDS011;68287;44.714;37.756;2023-02-28T20:17:28;8.95;;;3.63;;
78897;SDS011;68287;44.714;37.756;2023-02-28T20:18:31;9.23;;;3.28;;
78897;SDS011;68287;44.714;37.756;2023-02-28T20:19:33;9.05;;;3.33;;
78897;SDS011;68287;44.714;37.756;2023-02-28T20:20:35;6.97;;;3.13;;
78897;SDS011;68287;44.714;37.756;2023-02-28T20:21:37;8.07;;;3.83;;
78897;SDS011;68287;44.714;37.756;2023-02-28T20:22:41;9.70;;;2.97;;
78897;SDS011;68287;44.714;37.756;2023-02-28T20:23:43;7.15;;;3.10;;
78897;SDS011;68287;44.714;37.756;2023-02-28T20:24:46;7.32;;;2.95;;
78897;SDS011;68287;44.714;37.756;2023-02-28T20:25:48;7.10;;;3.10;;
78897;SDS011;68287;44.714;37.756;2023-02-28T20:26:51;6.53;;;3.30;;
78897;SDS011;68287;44.714;37.756;2023-02-28T20:27:53;7.15;;;3.20;;
78897;SDS011;68287;44.714;37.756;2023-02-28T20:28:55;6.40;;;2.90;;
78897;SDS011;68287;44.714;37.756;2023-02-28T20:29:56;6.95;;;2.92;;